Time;durP1;ratioP1;P1;durP2;ratioP2;P2;SDS_P1;SDS_P2;PMS_P1;PMS_P2;Temp;Humidity;BMP_temperature;BMP_pressure;BME280_temperature;BME280_humidity;BME280_pressure;Samples;Min_cycle;Max_cycle;Signal;HPM_P1;HPM_P2
2022/12/06 00:00:01;;;;;;;9.27;5.07;;;;;;;5.45;100.00;98368.50;2595550;28;20064;-86
2022/12/06 00:01:21;;;;;;;8.25;4.40;;;;;;;5.40;100.00;98373.72;2595663;28;20057;-86
2022/12/06 00:02:36;;;;;;;8.63;4.68;;;;;;;5.35;100.00;98378.09;2595886;28;20119;-89
2022/12/06 00:03:54;;;;;;;7.22;4.30;;;;;;;5.24;100.00;98362.59;2597995;28;20049;-89
2022/12/06 00:05:10;;;;;;;8.07;4.35;;;;;;;5.23;100.00;98360.84;2597870;28;20053;-85
2022/12/06 00:06:28;;;;;;;8.55;5.10;;;;;;;5.15;100.00;98357.47;2597719;28;20405;-87
2022/12/06 00:07:43;;;;;;;8.80;5.32;;;;;;;5.12;100.00;98354.91;2597623;28;20127;-87
2022/12/06 00:08:59;;;;;;;12.73;6.07;;;;;;;5.12;100.00;98355.75;2597723;28;20049;-84
2022/12/06 00:10:15;;;;;;;9.32;5.45;;;;;;;5.07;100.00;98354.94;2597283;28;20088;-86
2022/12/06 00:11:33;;;;;;;8.57;5.03;;;;;;;5.14;100.00;98358.34;2597935;28;20077;-87
2022/12/06 00:12:49;;;;;;;12.57;6.60;;;;;;;5.07;100.00;98349.75;2597683;28;20099;-88
2022/12/06 00:14:05;;;;;;;12.52;5.90;;;;;;;5.05;100.00;98352.34;2597777;28;20112;-87
2022/12/06 00:15:21;;;;;;;10.15;5.72;;;;;;;5.11;100.00;98342.81;2597516;28;20075;-85
2022/12/06 00:16:37;;;;;;;11.63;6.28;;;;;;;5.25;100.00;98351.34;2597780;28;20068;-85
2022/12/06 00:17:52;;;;;;;10.52;6.47;;;;;;;5.36;100.00;98343.47;2597201;28;20046;-84
2022/12/06 00:19:11;;;;;;;12.40;6.28;;;;;;;5.19;100.00;98346.19;2597491;28;20270;-87
2022/12/06 00:20:27;;;;;;;10.68;6.28;;;;;;;4.98;100.00;98340.31;2597343;28;20129;-86
2022/12/06 00:21:43;;;;;;;8.57;4.53;;;;;;;4.98;100.00;98347.22;2597721;28;20069;-85
2022/12/06 00:22:58;;;;;;;8.27;4.70;;;;;;;5.12;100.00;98341.94;2597637;28;20492;-87
2022/12/06 00:24:17;;;;;;;6.93;4.45;;;;;;;5.14;100.00;98347.97;2597587;28;20127;-86
2022/12/06 00:25:34;;;;;;;11.93;5.20;;;;;;;5.31;100.00;98353.03;2597614;28;20076;-85
2022/12/06 00:26:50;;;;;;;11.68;5.32;;;;;;;5.19;100.00;98346.19;2597556;28;20641;-88
2022/12/06 00:28:06;;;;;;;10.13;5.93;;;;;;;5.13;100.00;98347.09;2597369;28;20057;-86
2022/12/06 00:29:22;;;;;;;12.85;6.30;;;;;;;5.20;100.00;98346.19;2597462;28;20647;-86
2022/12/06 00:30:38;;;;;;;10.40;5.40;;;;;;;5.19;100.00;98352.25;2597486;28;20208;-90
2022/12/06 00:31:53;;;;;;;9.43;5.28;;;;;;;5.33;100.00;98348.69;2597729;28;20065;-87
2022/12/06 00:33:09;;;;;;;10.18;5.47;;;;;;;5.20;100.00;98345.31;2601094;28;20053;-86
2022/12/06 00:34:26;;;;;;;8.50;4.43;;;;;;;5.01;100.00;98345.47;2601182;28;20050;-86
2022/12/06 00:35:41;;;;;;;9.63;5.03;;;;;;;5.05;100.00;98338.53;2597585;28;20088;-85
2022/12/06 00:36:57;;;;;;;9.55;5.38;;;;;;;5.24;100.00;98352.22;2597524;28;20058;-86
2022/12/06 00:38:12;;;;;;;11.40;5.35;;;;;;;5.07;100.00;98344.56;2597368;28;20534;-88
2022/12/06 00:39:28;;;;;;;8.80;4.78;;;;;;;5.06;100.00;98340.25;2597267;28;20531;-87
2022/12/06 00:40:44;;;;;;;8.38;5.05;;;;;;;5.00;100.00;98335.97;2597068;28;20057;-86
2022/12/06 00:41:59;;;;;;;8.57;5.05;;;;;;;5.02;100.00;98336.81;2597168;28;20153;-87
2022/12/06 00:43:15;;;;;;;10.63;5.00;;;;;;;5.23;100.00;98340.09;2597644;28;20458;-89
2022/12/06 00:44:30;;;;;;;10.93;5.20;;;;;;;5.15;100.00;98337.56;2597432;28;20056;-86
2022/12/06 00:45:46;;;;;;;8.73;4.90;;;;;;;5.08;100.00;98341.09;2597424;28;20053;-85
2022/12/06 00:47:02;;;;;;;8.98;5.00;;;;;;;5.04;100.00;98342.84;2597477;28;20053;-87
2022/12/06 00:48:17;;;;;;;7.45;4.70;;;;;;;5.14;100.00;98337.59;2597340;28;20078;-86
2022/12/06 00:49:32;;;;;;;7.85;4.75;;;;;;;5.14;100.00;98337.59;2597468;28;20041;-85
2022/12/06 00:50:49;;;;;;;8.23;4.88;;;;;;;5.03;100.00;98333.34;2597370;28;20049;-85
2022/12/06 00:52:04;;;;;;;7.53;4.50;;;;;;;5.10;100.00;98339.34;2597169;28;20148;-85
2022/12/06 00:53:20;;;;;;;10.40;5.03;;;;;;;5.03;100.00;98332.47;2597157;28;20735;-87
2022/12/06 00:54:36;;;;;;;11.07;5.43;;;;;;;4.94;100.00;98330.78;2597083;28;20072;-86
2022/12/06 00:55:51;;;;;;;9.60;4.90;;;;;;;4.99;100.00;98334.25;2597356;28;20072;-87
2022/12/06 00:57:07;;;;;;;10.15;5.40;;;;;;;5.15;100.00;98332.38;2597362;28;20054;-86
2022/12/06 00:58:23;;;;;;;9.45;5.15;;;;;;;5.00;100.00;98330.78;2597081;28;20049;-85
2022/12/06 00:59:38;;;;;;;9.65;5.20;;;;;;;5.13;100.00;98330.69;2596965;28;20075;-85
2022/12/06 01:00:54;;;;;;;9.35;5.13;;;;;;;5.15;100.00;98331.53;2596974;28;20095;-88
2022/12/06 01:02:10;;;;;;;8.68;4.93;;;;;;;5.15;100.00;98332.38;2597492;28;20058;-87
2022/12/06 01:03:25;;;;;;;10.02;5.32;;;;;;;5.19;100.00;98334.09;2597154;28;20500;-86
2022/12/06 01:04:41;;;;;;;10.20;5.70;;;;;;;5.15;100.00;98328.94;2597124;28;20053;-87
2022/12/06 01:05:57;;;;;;;10.38;5.30;;;;;;;5.15;100.00;98336.72;2597208;28;20071;-88
2022/12/06 01:07:12;;;;;;;9.25;5.25;;;;;;;5.29;100.00;98331.41;2597189;28;20052;-87
2022/12/06 01:08:28;;;;;;;8.23;4.97;;;;;;;5.12;100.00;98329.81;2597001;28;20049;-86
2022/12/06 01:09:43;;;;;;;9.25;5.35;;;;;;;5.11;100.00;98325.50;2597143;28;20556;-86
2022/12/06 01:11:01;;;;;;;9.45;5.47;;;;;;;5.19;100.00;98326.31;2597229;28;20054;-88
2022/12/06 01:12:16;;;;;;;11.07;5.18;;;;;;;5.17;100.00;98325.47;2596935;28;20076;-85
2022/12/06 01:13:32;;;;;;;10.35;5.35;;;;;;;5.26;100.00;98327.13;2596268;28;20049;-87
2022/12/06 01:14:47;;;;;;;9.38;5.20;;;;;;;5.20;100.00;98325.44;2596026;28;20144;-86
2022/12/06 01:16:11;;;;;;;10.88;5.68;;;;;;;5.32;100.00;98321.00;2597137;28;20049;-87
2022/12/06 01:17:27;;;;;;;10.27;4.95;;;;;;;5.25;100.00;98328.00;2596873;28;20136;-90
2022/12/06 01:18:44;;;;;;;9.60;5.50;;;;;;;5.25;100.00;98321.91;2597193;28;20049;-88
2022/12/06 01:19:59;;;;;;;11.20;5.95;;;;;;;5.25;100.00;98324.53;2601948;28;20055;-88
2022/12/06 01:21:17;;;;;;;10.20;5.45;;;;;;;5.27;100.00;98327.97;2599996;28;20076;-86
2022/12/06 01:22:33;;;;;;;9.52;5.32;;;;;;;5.22;100.00;98318.47;2597075;28;20455;-86
2022/12/06 01:23:49;;;;;;;9.80;4.90;;;;;;;5.26;100.00;98321.03;2597038;28;20267;-89
2022/12/06 01:25:05;;;;;;;9.05;5.28;;;;;;;5.26;100.00;98314.13;2596808;28;20095;-85
2022/12/06 01:26:26;;;;;;;9.50;5.38;;;;;;;5.18;100.00;98319.41;2596613;28;20435;-88
2022/12/06 01:27:42;;;;;;;10.65;5.13;;;;;;;5.11;100.00;98316.88;2596721;28;20072;-88
2022/12/06 01:28:59;;;;;;;9.27;5.13;;;;;;;5.06;100.00;98315.13;2596982;28;20116;-86
2022/12/06 01:30:14;;;;;;;10.45;5.22;;;;;;;5.30;100.00;98304.56;2596807;28;20056;-87
2022/12/06 01:31:30;;;;;;;9.80;5.32;;;;;;;5.15;100.00;98310.75;2596645;28;20148;-86
2022/12/06 01:32:46;;;;;;;9.18;5.50;;;;;;;4.99;100.00;98312.59;2596951;28;20071;-90
2022/12/06 01:34:01;;;;;;;8.57;4.88;;;;;;;5.09;100.00;98307.31;2596771;28;20054;-87
2022/12/06 01:35:17;;;;;;;10.68;5.28;;;;;;;5.10;100.00;98303.00;2596930;28;20049;-87
2022/12/06 01:36:32;;;;;;;8.80;5.55;;;;;;;5.02;100.00;98312.56;2596770;28;20053;-89
2022/12/06 01:37:48;;;;;;;9.38;5.22;;;;;;;5.05;100.00;98317.75;2597069;28;20056;-86
2022/12/06 01:39:06;;;;;;;10.02;5.40;;;;;;;5.04;100.00;98313.44;2596832;28;20398;-86
2022/12/06 01:40:22;;;;;;;8.98;5.40;;;;;;;5.12;100.00;98310.78;2596897;28;20050;-86
2022/12/06 01:41:38;;;;;;;9.82;5.75;;;;;;;4.95;100.00;98316.94;2596849;28;20053;-86
2022/12/06 01:42:54;;;;;;;10.10;6.03;;;;;;;4.73;100.00;98318.84;2596908;28;20045;-86
2022/12/06 01:44:39;;;;;;;10.18;5.07;;;;;;;4.94;100.00;98316.09;2596977;28;20076;-85
2022/12/06 01:45:56;;;;;;;11.82;5.50;;;;;;;5.05;100.00;98309.97;2596832;28;20041;-86
2022/12/06 01:47:18;;;;;;;11.82;6.03;;;;;;;4.76;100.00;98316.25;2597036;28;20389;-86
2022/12/06 01:48:34;;;;;;;9.07;5.15;;;;;;;4.97;100.00;98311.75;2596993;28;20136;-86
2022/12/06 01:50:04;;;;;;;10.85;6.18;;;;;;;5.15;100.00;98315.97;2596666;28;20063;-88
2022/12/06 01:51:20;;;;;;;10.32;5.50;;;;;;;5.17;100.00;98307.28;2596691;28;20064;-87
2022/12/06 01:52:45;;;;;;;10.85;5.38;;;;;;;4.93;100.00;98313.50;2596682;28;20113;-86
2022/12/06 01:54:04;;;;;;;10.82;5.40;;;;;;;4.89;100.00;98304.03;2596982;28;20488;-86
2022/12/06 01:55:24;;;;;;;12.10;5.25;;;;;;;5.00;100.00;98304.81;2596591;28;20045;-86
2022/12/06 01:56:40;;;;;;;9.27;4.93;;;;;;;4.90;100.00;98305.75;2596918;28;20049;-88
2022/12/06 01:58:00;;;;;;;10.45;5.50;;;;;;;4.89;100.00;98306.63;2596398;28;20072;-90
2022/12/06 01:59:16;;;;;;;11.32;4.93;;;;;;;4.90;100.00;98306.63;2596644;28;20156;-85
2022/12/06 02:00:31;;;;;;;9.75;5.13;;;;;;;4.77;100.00;98311.03;2596308;28;20072;-86
2022/12/06 02:01:48;;;;;;;8.82;5.18;;;;;;;4.74;100.00;98308.47;2595823;28;20053;-87
2022/12/06 02:03:09;;;;;;;9.45;5.05;;;;;;;4.72;100.00;98301.56;2595906;28;20133;-87
2022/12/06 02:04:26;;;;;;;10.02;5.20;;;;;;;4.94;100.00;98305.72;2596142;28;20053;-90
2022/12/06 02:05:42;;;;;;;9.15;4.90;;;;;;;5.23;100.00;98304.63;2596449;28;20045;-86
2022/12/06 02:06:59;;;;;;;9.82;5.03;;;;;;;5.06;100.00;98304.75;2596276;28;20042;-88
2022/12/06 02:08:17;;;;;;;8.20;4.53;;;;;;;4.95;100.00;98301.38;2596251;28;20057;-85
2022/12/06 02:09:33;;;;;;;11.13;5.25;;;;;;;5.02;100.00;98307.38;2596047;28;20448;-89
2022/12/06 02:10:49;;;;;;;10.48;5.13;;;;;;;4.83;100.00;98301.50;2596371;28;20049;-87
2022/12/06 02:12:11;;;;;;;12.35;5.43;;;;;;;5.06;100.00;98304.75;2596219;28;20466;-84
2022/12/06 02:13:29;;;;;;;10.85;4.70;;;;;;;5.05;100.00;98303.03;2596203;28;20172;-87
2022/12/06 02:14:49;;;;;;;11.13;5.15;;;;;;;5.15;100.00;98303.81;2596023;28;20053;-85
2022/12/06 02:16:17;;;;;;;8.82;4.95;;;;;;;5.00;100.00;98302.22;2596339;28;20963;-87
2022/12/06 02:17:46;;;;;;;8.85;5.07;;;;;;;5.04;100.00;98303.06;2596136;28;20404;-86
2022/12/06 02:19:41;;;;;;;7.68;4.55;;;;;;;4.76;100.00;98298.09;2596379;28;20578;-86
2022/12/06 02:21:23;;;;;;;7.90;4.63;;;;;;;5.17;100.00;98296.03;2595965;28;20059;-86
2022/12/06 02:22:47;;;;;;;8.27;4.55;;;;;;;5.13;100.00;98294.34;2596328;28;20046;-88
2022/12/06 02:24:05;;;;;;;9.40;5.00;;;;;;;4.89;100.00;98289.34;2596194;28;20585;-86
2022/12/06 02:25:55;;;;;;;7.82;4.55;;;;;;;4.90;100.00;98291.06;2596117;28;20142;-86
2022/12/06 02:27:32;;;;;;;10.10;4.22;;;;;;;4.80;100.00;98281.63;2595564;28;20431;-84
2022/12/06 02:29:03;;;;;;;7.00;4.20;;;;;;;4.94;100.00;98284.09;2596098;28;20545;-85
2022/12/06 02:30:38;;;;;;;8.82;4.93;;;;;;;5.08;100.00;98281.41;2596038;28;20045;-90
2022/12/06 02:32:01;;;;;;;8.77;4.55;;;;;;;4.97;100.00;98288.41;2596150;28;20045;-86
2022/12/06 02:33:24;;;;;;;6.22;3.67;;;;;;;5.12;100.00;98287.44;2596233;28;20136;-83
2022/12/06 02:34:47;;;;;;;6.25;3.95;;;;;;;4.93;100.00;98287.56;2596189;28;20698;-84
2022/12/06 02:36:14;;;;;;;7.22;3.97;;;;;;;4.91;100.00;98291.91;2596291;28;20049;-85
2022/12/06 02:37:36;;;;;;;6.90;3.95;;;;;;;4.96;100.00;98287.56;2596129;28;20087;-84
2022/12/06 02:39:18;;;;;;;6.97;4.22;;;;;;;4.84;100.00;98287.66;2596368;28;20091;-83
2022/12/06 02:40:41;;;;;;;10.25;4.13;;;;;;;4.89;100.00;98289.34;2595911;28;20132;-86
2022/12/06 02:42:06;;;;;;;6.82;4.10;;;;;;;5.07;100.00;98296.09;2596244;28;20052;-85
2022/12/06 02:43:30;;;;;;;6.88;4.28;;;;;;;4.95;100.00;98297.06;2596079;28;20258;-87
2022/12/06 02:44:51;;;;;;;8.35;4.05;;;;;;;5.09;100.00;98293.50;2595880;28;20102;-85
2022/12/06 02:46:12;;;;;;;7.00;3.90;;;;;;;5.05;100.00;98290.06;2596323;28;20050;-84
2022/12/06 02:47:32;;;;;;;6.35;3.92;;;;;;;5.07;100.00;98296.09;2595957;28;20826;-84
2022/12/06 02:48:52;;;;;;;7.70;3.90;;;;;;;5.16;100.00;98287.38;2595901;28;20128;-87
2022/12/06 02:50:15;;;;;;;5.78;3.50;;;;;;;5.19;100.00;98289.97;2596011;28;20554;-83
2022/12/06 02:51:34;;;;;;;8.63;4.05;;;;;;;5.08;100.00;98291.78;2595986;28;20837;-84
2022/12/06 02:52:53;;;;;;;10.18;4.57;;;;;;;5.02;100.00;98291.81;2596034;28;20096;-84
2022/12/06 02:54:10;;;;;;;7.82;4.43;;;;;;;5.21;100.00;98292.53;2596089;28;20045;-83
2022/12/06 02:55:28;;;;;;;6.78;4.05;;;;;;;5.08;100.00;98287.44;2595836;28;20075;-84
2022/12/06 02:56:43;;;;;;;8.63;4.68;;;;;;;5.04;100.00;98292.69;2595908;28;20053;-82
2022/12/06 02:57:59;;;;;;;7.28;4.07;;;;;;;5.06;100.00;98291.78;2596210;28;20091;-83
2022/12/06 02:59:14;;;;;;;10.43;4.07;;;;;;;5.08;100.00;98296.97;2595558;28;20057;-85
2022/12/06 03:00:42;;;;;;;8.52;4.38;;;;;;;5.15;100.00;98292.59;2595948;28;20554;-83
2022/12/06 03:02:01;;;;;;;7.65;4.32;;;;;;;5.28;100.00;98290.75;2595977;28;20527;-83
2022/12/06 03:03:42;;;;;;;7.78;4.28;;;;;;;5.26;100.00;98295.09;2595747;28;20049;-82
2022/12/06 03:05:14;;;;;;;8.23;4.65;;;;;;;5.29;100.00;98295.94;2596417;28;20064;-82
2022/12/06 03:06:49;;;;;;;;;;;;;;;5.21;100.00;98284.75;2596734;28;20088;-83
2022/12/06 03:08:21;;;;;;;6.78;3.90;;;;;;;5.18;100.00;98289.97;2595936;28;19936;-87
2022/12/06 03:10:14;;;;;;;7.00;3.95;;;;;;;5.36;100.00;98281.16;2595917;28;20472;-87
2022/12/06 03:11:54;;;;;;;7.70;4.28;;;;;;;5.43;100.00;98285.41;2595761;28;20084;-84
2022/12/06 03:13:32;;;;;;;7.68;3.88;;;;;;;5.40;100.00;98280.25;2595855;28;20049;-84
2022/12/06 03:15:14;;;;;;;7.07;3.92;;;;;;;5.25;100.00;98289.06;2595882;28;20493;-85
2022/12/06 03:16:46;;;;;;;7.00;4.00;;;;;;;5.23;100.00;98290.78;2595182;28;20848;-83
2022/12/06 03:18:20;;;;;;;11.35;4.50;;;;;;;5.27;100.00;98287.31;2595519;28;20068;-82
2022/12/06 03:19:39;;;;;;;10.02;4.50;;;;;;;5.31;100.00;98288.13;2595723;28;20531;-83
2022/12/06 03:21:15;;;;;;;8.30;4.68;;;;;;;5.39;100.00;98283.72;2595772;28;20236;-83
2022/12/06 03:22:34;;;;;;;8.23;3.75;;;;;;;5.40;100.00;98289.78;2595796;28;20076;-84
2022/12/06 03:23:50;;;;;;;6.80;3.83;;;;;;;5.41;100.00;98286.31;2595824;28;20049;-83
2022/12/06 03:25:08;;;;;;;6.35;3.90;;;;;;;5.47;100.00;98281.91;2595618;28;20075;-83
2022/12/06 03:26:29;;;;;;;7.43;4.40;;;;;;;5.49;100.00;98287.09;2595698;28;20049;-85
2022/12/06 03:27:47;;;;;;;6.55;3.78;;;;;;;5.43;100.00;98282.81;2595594;28;21063;-85
2022/12/06 03:29:06;;;;;;;6.90;4.20;;;;;;;5.34;100.00;98282.91;2595667;28;20057;-83
2022/12/06 03:30:22;;;;;;;7.30;3.58;;;;;;;5.37;100.00;98286.31;2595539;28;20527;-82
2022/12/06 03:31:40;;;;;;;6.75;4.03;;;;;;;5.47;100.00;98281.91;2595574;28;20060;-84
2022/12/06 03:32:56;;;;;;;7.90;4.65;;;;;;;5.54;100.00;98285.31;2595372;28;20073;-84
2022/12/06 03:34:25;;;;;;;9.32;4.57;;;;;;;5.55;100.00;98287.03;2595627;28;20050;-83
2022/12/06 03:35:42;;;;;;;6.90;3.97;;;;;;;5.58;100.00;98280.94;2595588;28;20111;-83
2022/12/06 03:36:58;;;;;;;8.13;4.45;;;;;;;5.60;100.00;98279.19;2595647;28;20072;-81
2022/12/06 03:38:22;;;;;;;7.55;3.85;;;;;;;5.45;100.00;98283.69;2595637;28;20492;-84
2022/12/06 03:39:48;;;;;;;8.50;4.22;;;;;;;5.32;100.00;98284.66;2595556;28;20045;-84
2022/12/06 03:41:06;;;;;;;7.35;3.88;;;;;;;5.45;100.00;98280.22;2595565;28;20049;-83
2022/12/06 03:42:21;;;;;;;5.55;3.58;;;;;;;5.45;100.00;98285.41;2595776;28;20087;-83
2022/12/06 03:43:37;;;;;;;8.63;4.13;;;;;;;5.42;100.00;98278.50;2595650;28;20054;-84
2022/12/06 03:44:53;;;;;;;7.80;4.32;;;;;;;5.42;100.00;98283.69;2595721;28;20115;-83
2022/12/06 03:46:16;;;;;;;7.38;4.22;;;;;;;5.39;100.00;98273.34;2595568;28;20053;-82
2022/12/06 03:47:52;;;;;;;7.82;4.15;;;;;;;5.44;100.00;98284.53;2595511;28;20132;-83
2022/12/06 03:49:16;;;;;;;7.93;3.72;;;;;;;5.43;100.00;98281.97;2595719;28;20053;-83
2022/12/06 03:50:49;;;;;;;6.85;3.88;;;;;;;5.46;100.00;98284.53;2595606;28;20492;-83
2022/12/06 03:52:04;;;;;;;6.50;3.70;;;;;;;5.39;100.00;98280.28;2595751;28;20054;-82
2022/12/06 03:53:20;;;;;;;7.13;4.20;;;;;;;5.40;100.00;98285.44;2595659;28;20049;-85
2022/12/06 03:54:40;;;;;;;6.50;3.78;;;;;;;5.41;100.00;98284.56;2595518;28;20053;-83
2022/12/06 03:55:56;;;;;;;11.18;4.43;;;;;;;5.48;100.00;98282.75;2595511;28;20084;-83
2022/12/06 03:57:11;;;;;;;8.00;4.05;;;;;;;5.39;100.00;98288.06;2595771;28;20041;-85
2022/12/06 03:58:27;;;;;;;9.82;4.70;;;;;;;5.35;100.00;98285.47;2595603;28;20045;-81
2022/12/06 03:59:43;;;;;;;6.43;4.25;;;;;;;5.42;100.00;98285.44;2595180;28;20088;-82
2022/12/06 04:01:03;;;;;;;8.23;4.45;;;;;;;5.47;100.00;98284.53;2595356;28;20060;-88
2022/12/06 04:02:19;;;;;;;6.82;4.40;;;;;;;5.48;100.00;98291.44;2595739;28;20060;-83
2022/12/06 04:03:35;;;;;;;9.23;4.45;;;;;;;5.41;100.00;98284.56;2595637;28;20571;-82
2022/12/06 04:04:50;;;;;;;7.53;4.40;;;;;;;5.40;100.00;98282.84;2595680;28;20987;-84
2022/12/06 04:06:07;;;;;;;7.13;4.45;;;;;;;5.50;100.00;98283.59;2595765;28;20057;-85
2022/12/06 04:07:23;;;;;;;7.70;4.22;;;;;;;5.51;100.00;98285.31;2595547;28;20512;-82
2022/12/06 04:08:39;;;;;;;10.18;4.95;;;;;;;5.45;100.00;98277.63;2595545;28;20053;-82
2022/12/06 04:10:03;;;;;;;10.05;5.20;;;;;;;5.42;100.00;98278.50;2595579;28;20053;-82
2022/12/06 04:11:19;;;;;;;9.50;5.50;;;;;;;5.45;100.00;98281.09;2595625;28;20493;-82
2022/12/06 04:14:09;;;;;;;8.18;5.03;;;;;;;5.42;100.00;98281.09;2595122;28;20094;-83
2022/12/06 04:15:26;;;;;;;9.98;5.40;;;;;;;5.41;100.00;98279.38;2595626;28;20057;-82
2022/12/06 04:18:17;;;;;;;8.77;5.38;;;;;;;5.20;100.00;98273.53;2595557;28;20049;-83
2022/12/06 04:19:32;;;;;;;22.50;6.57;;;;;;;5.25;100.00;98272.59;2595457;28;20053;-84
2022/12/06 04:24:05;;;;;;;9.20;5.45;;;;;;;5.28;100.00;98278.63;2595415;28;20068;-82
2022/12/06 04:25:21;;;;;;;10.32;5.53;;;;;;;5.33;100.00;98281.19;2595166;28;20088;-83
2022/12/06 04:26:36;;;;;;;9.65;5.53;;;;;;;5.25;100.00;98273.47;2595339;28;20049;-82
2022/12/06 04:28:40;;;;;;;13.02;5.80;;;;;;;5.31;100.00;98278.59;2595365;28;20275;-88
2022/12/06 04:39:07;;;;;;;10.35;4.97;;;;;;;5.31;100.00;98280.34;2595664;28;20440;-83
2022/12/06 04:40:23;;;;;;;9.10;4.72;;;;;;;5.28;100.00;98272.56;2595038;28;20042;-82
2022/12/06 04:44:47;;;;;;;7.45;4.40;;;;;;;5.36;100.00;98279.41;2595789;28;20115;-82
2022/12/06 04:46:03;;;;;;;8.32;4.40;;;;;;;5.30;100.00;98276.00;2595283;28;20045;-84
2022/12/06 04:47:19;;;;;;;7.32;4.40;;;;;;;5.37;100.00;98269.91;2598717;28;20129;-85
2022/12/06 04:48:34;;;;;;;7.68;4.50;;;;;;;5.26;100.00;98276.91;2598177;28;20408;-83
2022/12/06 04:49:51;;;;;;;8.85;4.22;;;;;;;5.31;100.00;98272.56;2595657;28;20056;-82
2022/12/06 04:51:11;;;;;;;8.27;4.45;;;;;;;5.40;100.00;98271.63;2597355;28;20485;-88
2022/12/06 04:52:27;;;;;;;5.78;4.07;;;;;;;5.33;100.00;98273.41;2597297;28;20757;-82
2022/12/06 04:53:43;;;;;;;8.40;4.53;;;;;;;5.18;100.00;98277.88;2597219;28;20053;-83
2022/12/06 04:54:58;;;;;;;7.80;3.83;;;;;;;5.37;100.00;98269.91;2597298;28;21049;-83
2022/12/06 04:56:14;;;;;;;11.07;4.85;;;;;;;5.16;100.00;98268.38;2597359;28;20049;-84
2022/12/06 04:57:30;;;;;;;7.55;4.35;;;;;;;5.27;100.00;98276.91;2597232;28;20128;-83
2022/12/06 04:58:46;;;;;;;9.95;4.82;;;;;;;5.26;100.00;98272.59;2596896;28;20135;-84
2022/12/06 05:00:01;;;;;;;8.10;4.15;;;;;;;5.19;100.00;98268.34;2595691;28;20160;-83
2022/12/06 05:01:17;;;;;;;14.77;5.80;;;;;;;5.34;100.00;98275.13;2596085;28;20056;-82
2022/12/06 05:02:33;;;;;;;11.95;5.45;;;;;;;5.37;100.00;98272.50;2597446;28;20128;-82
2022/12/06 05:03:49;;;;;;;10.98;5.80;;;;;;;5.22;100.00;98269.16;2597074;28;20508;-83
2022/12/06 05:05:05;;;;;;;22.50;6.75;;;;;;;5.34;100.00;98269.94;2597167;28;20152;-87
2022/12/06 05:06:20;;;;;;;15.43;6.70;;;;;;;5.31;100.00;98262.19;2596443;28;20049;-84
2022/12/06 05:07:36;;;;;;;55.17;12.18;;;;;;;5.42;100.00;98270.69;2596580;28;20088;-85
2022/12/06 05:08:51;;;;;;;19.38;7.88;;;;;;;5.31;100.00;98267.38;2597443;28;20049;-82
2022/12/06 05:10:07;;;;;;;32.35;8.95;;;;;;;5.37;100.00;98262.09;2596921;28;20535;-84
2022/12/06 05:11:23;;;;;;;16.83;7.93;;;;;;;5.21;100.00;98263.97;2597032;28;20496;-84
2022/12/06 05:12:38;;;;;;;21.90;8.88;;;;;;;5.18;100.00;98266.59;2597439;28;20075;-82
2022/12/06 05:13:54;;;;;;;27.30;8.40;;;;;;;5.30;100.00;98265.63;2596908;28;20496;-82
2022/12/06 05:15:10;;;;;;;23.67;7.53;;;;;;;5.23;100.00;98264.81;2597025;28;20061;-89
2022/12/06 05:16:25;;;;;;;16.58;7.03;;;;;;;5.33;100.00;98260.44;2597376;28;20053;-84
2022/12/06 05:17:41;;;;;;;18.38;6.80;;;;;;;5.41;100.00;98263.78;2597016;28;20480;-84
2022/12/06 05:18:57;;;;;;;12.93;6.10;;;;;;;5.32;100.00;98263.91;2596954;28;20061;-84
2022/12/06 05:20:13;;;;;;;13.02;6.75;;;;;;;5.29;100.00;98263.91;2596986;28;20392;-82
2022/12/06 05:21:28;;;;;;;14.27;5.30;;;;;;;5.36;100.00;98260.38;2597089;28;20045;-81
2022/12/06 05:22:44;;;;;;;12.93;5.88;;;;;;;5.32;100.00;98256.13;2597091;28;20045;-88
2022/12/06 05:24:00;;;;;;;11.27;5.32;;;;;;;5.40;100.00;98261.22;2595915;28;20050;-86
2022/12/06 05:25:16;;;;;;;10.23;4.57;;;;;;;5.42;100.00;98255.13;2596300;28;20049;-84
2022/12/06 05:26:31;;;;;;;8.07;4.20;;;;;;;5.33;100.00;98260.44;2596355;28;20406;-82
2022/12/06 05:27:47;;;;;;;10.30;4.57;;;;;;;5.44;100.00;98255.97;2596550;28;20053;-83
2022/12/06 05:29:02;;;;;;;7.40;3.88;;;;;;;5.46;100.00;98256.84;2596865;28;20049;-82
2022/12/06 05:30:18;;;;;;;9.38;4.72;;;;;;;5.29;100.00;98258.72;2595993;28;20049;-83
2022/12/06 05:31:33;;;;;;;7.85;4.20;;;;;;;5.20;100.00;98257.06;2596290;28;20057;-81
2022/12/06 05:32:49;;;;;;;8.73;4.20;;;;;;;5.32;100.00;98262.16;2596902;28;20157;-82
2022/12/06 05:34:05;;;;;;;12.77;4.40;;;;;;;5.37;100.00;98256.91;2596754;28;20988;-81
2022/12/06 05:35:20;;;;;;;7.32;4.00;;;;;;;5.23;100.00;98265.69;2596689;28;20060;-81
2022/12/06 05:36:36;;;;;;;7.15;4.13;;;;;;;5.30;100.00;98263.03;2596932;28;20076;-81
2022/12/06 05:37:52;;;;;;;7.60;3.80;;;;;;;5.39;100.00;98259.50;2596859;28;20091;-83
2022/12/06 05:39:07;;;;;;;8.32;3.92;;;;;;;5.29;100.00;98254.41;2596317;28;20506;-82
2022/12/06 05:40:23;;;;;;;7.65;4.13;;;;;;;5.35;100.00;98253.47;2596595;28;20049;-89
2022/12/06 05:41:38;;;;;;;7.43;3.72;;;;;;;5.20;100.00;98257.06;2596647;28;20472;-83
2022/12/06 05:42:54;;;;;;;7.13;4.30;;;;;;;4.99;100.00;98259.00;2596480;28;20041;-84
2022/12/06 05:44:11;;;;;;;7.43;4.03;;;;;;;5.07;100.00;98253.75;2596243;28;20049;-82
2022/12/06 05:45:26;;;;;;;5.72;4.03;;;;;;;5.17;100.00;98252.78;2596436;28;20057;-84
2022/12/06 05:46:41;;;;;;;7.40;4.70;;;;;;;5.31;100.00;98259.59;2596760;28;20076;-83
2022/12/06 05:47:57;;;;;;;8.20;3.80;;;;;;;5.26;100.00;98258.75;2596608;28;20136;-84
2022/12/06 05:49:13;;;;;;;6.63;3.67;;;;;;;5.39;100.00;98262.09;2596115;28;20520;-83
2022/12/06 05:50:29;;;;;;;6.25;4.28;;;;;;;5.25;100.00;98263.09;2595834;28;20046;-85
2022/12/06 05:51:44;;;;;;;6.00;3.90;;;;;;;5.29;100.00;98257.00;2595810;28;20075;-82
2022/12/06 05:53:00;;;;;;;6.70;3.90;;;;;;;5.32;100.00;98262.16;2596493;28;20128;-84
2022/12/06 05:54:16;;;;;;;9.25;4.70;;;;;;;5.27;100.00;98260.47;2596389;28;20041;-84
2022/12/06 05:55:32;;;;;;;8.50;4.47;;;;;;;5.31;100.00;98259.59;2596433;28;20046;-84
2022/12/06 05:56:50;;;;;;;7.25;4.28;;;;;;;5.44;100.00;98261.16;2596553;28;20124;-85
2022/12/06 05:58:06;;;;;;;7.75;4.18;;;;;;;5.26;100.00;98251.84;2596320;28;20049;-84
2022/12/06 05:59:22;;;;;;;10.02;4.25;;;;;;;5.18;100.00;98262.28;2596260;28;20054;-85
2022/12/06 06:00:37;;;;;;;9.00;4.38;;;;;;;5.14;100.00;98260.56;2596294;28;20128;-85
2022/12/06 06:01:53;;;;;;;7.32;4.15;;;;;;;5.22;100.00;98252.72;2596580;28;20045;-85
2022/12/06 06:03:09;;;;;;;8.52;4.28;;;;;;;5.27;100.00;98268.25;2596523;28;20060;-84
2022/12/06 06:04:24;;;;;;;8.40;4.40;;;;;;;5.32;100.00;98266.50;2596573;28;20045;-83
2022/12/06 06:05:50;;;;;;;7.22;3.88;;;;;;;5.46;100.00;98256.84;2596226;28;20045;-83
2022/12/06 06:07:05;;;;;;;8.27;4.60;;;;;;;5.28;100.00;98252.69;2596494;28;20150;-86
2022/12/06 06:08:21;;;;;;;9.60;5.30;;;;;;;5.12;100.00;98256.31;2596652;28;20140;-83
2022/12/06 06:09:37;;;;;;;8.88;5.03;;;;;;;5.20;100.00;98251.88;2596495;28;20061;-82
2022/12/06 06:10:52;;;;;;;10.45;5.82;;;;;;;5.23;100.00;98252.72;2596385;28;20045;-88
2022/12/06 06:12:08;;;;;;;11.55;5.40;;;;;;;5.17;100.00;98255.38;2596532;28;20546;-87
2022/12/06 06:13:24;;;;;;;8.82;5.03;;;;;;;5.11;100.00;98250.22;2596233;28;20147;-83
2022/12/06 06:14:39;;;;;;;12.35;5.53;;;;;;;5.10;100.00;98256.31;2596070;28;20049;-81
2022/12/06 06:15:55;;;;;;;12.00;6.63;;;;;;;4.80;100.00;98255.69;2596078;28;20053;-83
2022/12/06 06:17:12;;;;;;;11.60;7.68;;;;;;;4.91;100.00;98256.47;2596414;28;20063;-80
2022/12/06 06:18:34;;;;;;;14.32;7.47;;;;;;;4.99;100.00;98260.72;2596044;28;20123;-83
2022/12/06 06:19:50;;;;;;;15.25;8.48;;;;;;;5.16;100.00;98250.19;2595897;28;20103;-84
2022/12/06 06:21:05;;;;;;;14.15;8.50;;;;;;;5.22;100.00;98253.59;2595831;28;20057;-82
2022/12/06 06:22:22;;;;;;;15.98;8.45;;;;;;;5.21;100.00;98248.41;2596085;28;20053;-81
2022/12/06 06:23:39;;;;;;;15.35;8.70;;;;;;;5.36;100.00;98247.41;2596297;28;20135;-85
2022/12/06 06:24:54;;;;;;;14.02;8.55;;;;;;;5.48;100.00;98249.00;2596400;28;20045;-81
2022/12/06 06:26:11;;;;;;;12.45;7.55;;;;;;;5.36;100.00;98253.44;2596240;28;20107;-82
2022/12/06 06:27:27;;;;;;;11.93;6.90;;;;;;;5.18;100.00;98249.31;2595991;28;20405;-82
2022/12/06 06:28:43;;;;;;;11.82;6.57;;;;;;;5.28;100.00;98255.28;2595766;28;20136;-82